LFSB

Euro Basel-Mulhouse-Freiburg Airport

Bâle/Mulhouse, France
TAF AMD LFSB 221142Z 2212/2312 20005KT 9999 BKN020 TEMPO 2214/2218 SCT025 TEMPO 2218/2221 4500 BR NSC BECMG 2221/2224 BKN035 OVC110 BECMG 2300/2302 -SN TEMPO 2302/2306 3000 -SN OVC014 BECMG 2306/2309 NSW
Issued Valid From Valid To
Jan-22 @ 11:42 UTC
(5 hours ago)
Jan-22 @ 12:00 UTC
(5 hours ago)
Jan-23 @ 12:00 UTC
(in 19 hours)
Jan-22 @ 12:00 to Jan-22 @ 21:00
TAF AMD LFSB 221142Z 2212/2312 20005KT 9999 BKN020
Wind Visibility Clouds
200° at 5 knots 10,000+ meters
  • Broken at 2,000' AGL
Temporary Jan-22 @ 14:00 to Jan-22 @ 18:00
TEMPO 2214/2218 SCT025
Clouds
  • Scattered at 2,500' AGL
Temporary Jan-22 @ 18:00 to Jan-22 @ 21:00
TEMPO 2218/2221 4500 BR NSC
Visibility Clouds Conditions
4,506 meters
  • No significant clouds
  • Mist
Becoming Jan-22 @ 21:00 to Jan-23 @ 00:00
BECMG 2221/2224 BKN035 OVC110
Wind Visibility Clouds
200° at 5 knots 10,000+ meters
  • Broken at 3,500' AGL
  • Overcast at 11,000' AGL
Becoming Jan-23 @ 00:00 to Jan-23 @ 06:00
BECMG 2300/2302 -SN
Wind Visibility Clouds Conditions
200° at 5 knots 10,000+ meters
  • Broken at 3,500' AGL
  • Overcast at 11,000' AGL
  • Light Snow
Temporary Jan-23 @ 02:00 to Jan-23 @ 06:00
TEMPO 2302/2306 3000 -SN OVC014
Visibility Clouds Conditions
2,993 meters
  • Overcast at 1,400' AGL
  • Light Snow
Becoming Jan-23 @ 06:00 to Jan-23 @ 12:00
BECMG 2306/2309 NSW
Wind Visibility Clouds Conditions
200° at 5 knots 10,000+ meters
  • Broken at 3,500' AGL
  • Overcast at 11,000' AGL
TAF AMD LFSB 221142Z 2212/2312 20005KT 9999 BKN020 TEMPO 2214/2218 SCT025 TEMPO 2218/2221 4500 BR NSC BECMG 2221/2224 BKN035 OVC110 BECMG 2300/2302 -SN TEMPO 2302/2306 3000 -SN OVC014 BECMG 2306/2309 NSW
Issued Jan-22 @ 11:42 UTC
(5 hours ago)
Valid From Jan-22 @ 12:00 UTC
(5 hours ago)
Valid To Jan-23 @ 12:00 UTC
(in 19 hours)
Jan-22 @ 12:00 - Jan-22 @ 21:00
Wind Visibility
200° at 5 knots 10,000+ meters
Clouds
  • Broken at 2,000' AGL
Temporary Jan-22 @ 14:00 - Jan-22 @ 18:00
Clouds
  • Scattered at 2,500' AGL
Temporary Jan-22 @ 18:00 - Jan-22 @ 21:00
Clouds
  • No significant clouds
Conditions
  • Mist
Becoming Jan-22 @ 21:00 - Jan-23 @ 00:00
Wind Visibility
200° at 5 knots 10,000+ meters
Clouds
  • Broken at 3,500' AGL
  • Overcast at 11,000' AGL
Becoming Jan-23 @ 00:00 - Jan-23 @ 06:00
Wind Visibility
200° at 5 knots 10,000+ meters
Clouds
  • Broken at 3,500' AGL
  • Overcast at 11,000' AGL
Conditions
  • Light Snow
Temporary Jan-23 @ 02:00 - Jan-23 @ 06:00
Clouds
  • Overcast at 1,400' AGL
Conditions
  • Light Snow
Becoming Jan-23 @ 06:00 - Jan-23 @ 12:00
Wind Visibility
200° at 5 knots 10,000+ meters
Clouds
  • Broken at 3,500' AGL
  • Overcast at 11,000' AGL
Conditions